createdAt,value
2023-01-12T00:02:17.179Z,0.97
2023-01-12T00:07:20.618Z,1.13
2023-01-12T00:12:23.043Z,1.10
2023-01-12T00:17:25.025Z,1.33
2023-01-12T00:22:27.279Z,1.07
2023-01-12T00:27:29.258Z,1.17
2023-01-12T00:32:31.330Z,1.00
2023-01-12T00:37:34.949Z,0.70
2023-01-12T00:42:55.525Z,0.80
2023-01-12T00:47:57.697Z,0.87
2023-01-12T00:52:59.712Z,0.90
2023-01-12T00:58:01.787Z,1.00
2023-01-12T01:03:03.936Z,1.20
2023-01-12T01:08:06.526Z,1.13
2023-01-12T01:13:08.553Z,1.07
2023-01-12T01:18:10.586Z,1.03
2023-01-12T01:23:12.621Z,1.20
2023-01-12T01:28:16.640Z,1.10
2023-01-12T01:33:18.670Z,1.00
2023-01-12T01:38:20.896Z,1.00
2023-01-12T01:43:26.640Z,1.10
2023-01-12T01:48:33.566Z,0.93
2023-01-12T01:53:39.812Z,1.10
2023-01-12T01:58:54.124Z,1.30
2023-01-12T02:03:57.610Z,1.00
2023-01-12T02:09:15.712Z,1.00
2023-01-12T02:14:36.358Z,1.20
2023-01-12T02:20:14.021Z,0.70
2023-01-12T02:25:22.159Z,0.97
2023-01-12T02:31:05.477Z,1.20
2023-01-12T02:36:33.003Z,1.00
2023-01-12T02:42:04.479Z,0.80
2023-01-12T02:47:17.983Z,1.00
2023-01-12T02:52:26.687Z,0.80
2023-01-12T02:57:31.577Z,1.30
2023-01-12T03:02:34.347Z,1.20
2023-01-12T03:07:39.338Z,1.60
2023-01-12T03:12:45.046Z,1.00
2023-01-12T03:18:15.594Z,1.30
2023-01-12T03:23:37.240Z,1.20
2023-01-12T03:28:45.700Z,1.30
2023-01-12T03:33:48.013Z,1.10
2023-01-12T03:39:07.241Z,1.20
2023-01-12T03:44:21.439Z,1.33
2023-01-12T03:50:17.959Z,1.53
2023-01-12T03:55:24.225Z,0.97
2023-01-12T04:00:29.276Z,1.00
2023-01-12T04:05:31.251Z,1.10
2023-01-12T04:10:33.338Z,1.20
2023-01-12T04:15:38.122Z,1.10
2023-01-12T04:20:40.598Z,1.10
2023-01-12T04:25:42.625Z,1.10
2023-01-12T04:30:44.676Z,1.10
2023-01-12T04:35:47.725Z,1.30
2023-01-12T04:40:55.281Z,1.10
2023-01-12T04:45:59.093Z,1.07
2023-01-12T04:51:01.537Z,1.30
2023-01-12T04:56:08.437Z,1.00
2023-01-12T05:01:17.576Z,1.10
2023-01-12T05:06:19.742Z,1.30
2023-01-12T05:11:29.555Z,1.30
2023-01-12T05:16:31.732Z,1.43
2023-01-12T05:21:34.013Z,1.17
2023-01-12T05:26:36.027Z,1.10
2023-01-12T05:31:38.266Z,1.67
2023-01-12T05:36:40.299Z,1.13
2023-01-12T05:42:02.303Z,1.13
2023-01-12T05:47:04.426Z,1.03
2023-01-12T05:52:06.569Z,1.20
2023-01-12T05:57:08.743Z,1.27
2023-01-12T06:02:13.903Z,1.53
2023-01-12T06:07:16.860Z,1.60
2023-01-12T06:12:37.481Z,1.37
2023-01-12T06:17:39.599Z,1.40
2023-01-12T06:22:41.655Z,1.47
2023-01-12T06:27:43.680Z,1.20
2023-01-12T06:32:45.689Z,1.00
2023-01-12T06:37:47.670Z,1.00
2023-01-12T06:42:50.500Z,1.30
2023-01-12T06:47:52.823Z,1.63
2023-01-12T06:52:55.839Z,1.23
2023-01-12T06:58:01.693Z,1.27
2023-01-12T07:03:03.955Z,1.13
2023-01-12T07:08:05.947Z,1.60
2023-01-12T07:13:08.146Z,1.00
2023-01-12T07:18:10.464Z,1.37
2023-01-12T07:23:13.946Z,1.13
2023-01-12T07:28:16.282Z,1.60
2023-01-12T07:33:18.809Z,1.50
2023-01-12T07:38:21.195Z,0.93
2023-01-12T07:43:23.711Z,1.10
2023-01-12T07:48:27.554Z,1.00
2023-01-12T07:53:29.885Z,1.00
2023-01-12T07:58:31.970Z,1.10
2023-01-12T08:03:34.015Z,1.30
2023-01-12T08:08:36.414Z,1.00
2023-01-12T08:13:40.761Z,0.97
2023-01-12T08:19:01.610Z,0.87
2023-01-12T08:24:06.399Z,1.10
2023-01-12T08:29:13.841Z,0.87
2023-01-12T08:34:16.022Z,1.30
2023-01-12T08:39:18.288Z,1.30
2023-01-12T08:44:21.439Z,0.90
2023-01-12T08:49:28.233Z,1.07
2023-01-12T08:54:30.309Z,1.27
2023-01-12T08:59:32.439Z,1.07
2023-01-12T09:04:34.612Z,1.30
2023-01-12T09:09:37.081Z,0.90
2023-01-12T09:14:39.368Z,1.10
2023-01-12T09:19:44.157Z,1.20
2023-01-12T09:24:46.211Z,1.00
2023-01-12T09:29:48.324Z,1.17
2023-01-12T09:34:50.449Z,1.20
2023-01-12T09:39:52.906Z,1.10
2023-01-12T09:45:13.815Z,0.93
2023-01-12T09:50:24.028Z,0.90
2023-01-12T09:55:34.618Z,1.00
2023-01-12T10:00:36.709Z,1.00
2023-01-12T10:05:58.133Z,0.90
2023-01-12T10:11:38.883Z,0.90
2023-01-12T10:17:25.583Z,1.13
2023-01-12T10:22:42.291Z,1.20
2023-01-12T10:27:48.130Z,1.00
2023-01-12T10:32:50.222Z,1.10
2023-01-12T10:37:56.281Z,0.90
2023-01-12T10:43:24.088Z,0.97
2023-01-12T10:48:26.905Z,0.80
2023-01-12T10:53:44.047Z,1.13
2023-01-12T10:59:02.574Z,0.90
2023-01-12T11:04:06.149Z,0.77
2023-01-12T11:09:27.104Z,0.87
2023-01-12T11:14:39.517Z,0.60
2023-01-12T11:19:45.850Z,0.40
2023-01-12T11:24:57.780Z,0.67
2023-01-12T11:30:18.591Z,0.60
2023-01-12T11:35:39.341Z,0.47
2023-01-12T11:40:44.252Z,0.60
2023-01-12T11:45:54.990Z,0.70
2023-01-12T11:51:00.556Z,0.80
2023-01-12T11:56:42.571Z,0.50
2023-01-12T12:02:00.910Z,1.10
2023-01-12T12:07:36.941Z,0.40
2023-01-12T12:13:00.683Z,0.50
2023-01-12T12:18:49.812Z,0.50
2023-01-12T12:24:10.915Z,0.57
2023-01-12T12:29:29.535Z,0.90
2023-01-12T12:34:34.509Z,0.80
2023-01-12T12:39:49.753Z,0.67
2023-01-12T12:45:16.825Z,0.77
2023-01-12T12:51:08.905Z,0.57
2023-01-12T12:56:15.804Z,0.63
2023-01-12T13:01:23.853Z,0.53
2023-01-12T13:06:35.197Z,0.77
2023-01-12T13:12:00.578Z,0.30
2023-01-12T13:17:19.443Z,0.50
2023-01-12T13:22:44.591Z,1.00
2023-01-12T13:27:56.815Z,0.67
2023-01-12T13:33:27.612Z,0.40
2023-01-12T13:38:38.637Z,0.67
2023-01-12T13:43:58.289Z,0.40
2023-01-12T13:49:02.436Z,0.40
2023-01-12T13:54:11.469Z,0.60
2023-01-12T13:59:18.658Z,0.40
2023-01-12T14:04:56.997Z,0.67
2023-01-12T14:10:23.157Z,0.50
2023-01-12T14:15:53.374Z,0.50
2023-01-12T14:20:58.143Z,0.40
2023-01-12T14:26:06.033Z,0.70
2023-01-12T14:31:19.407Z,0.73
2023-01-12T14:36:45.324Z,0.50
2023-01-12T14:42:09.827Z,0.53
2023-01-12T14:47:26.311Z,0.57
2023-01-12T14:52:33.541Z,0.67
2023-01-12T14:57:36.403Z,0.60
2023-01-12T15:02:41.482Z,0.60
2023-01-12T15:08:22.213Z,0.33
2023-01-12T15:13:33.669Z,0.40
2023-01-12T15:18:54.435Z,0.73
2023-01-12T15:24:16.491Z,0.50
2023-01-12T15:29:18.655Z,0.33
2023-01-12T15:34:20.758Z,0.67
2023-01-12T15:39:23.217Z,0.53
2023-01-12T15:44:25.972Z,0.47
2023-01-12T15:49:30.907Z,0.70
2023-01-12T15:54:33.003Z,0.90
2023-01-12T15:59:35.115Z,0.57
2023-01-12T16:04:43.524Z,0.80
2023-01-12T16:09:47.879Z,0.90
2023-01-12T16:14:50.199Z,0.90
2023-01-12T16:19:53.013Z,0.53
2023-01-12T16:24:57.910Z,0.80
2023-01-12T16:30:00.104Z,0.50
2023-01-12T16:35:02.219Z,0.70
2023-01-12T16:40:04.902Z,0.80
2023-01-12T16:45:07.708Z,0.90
2023-01-12T16:50:10.048Z,1.00
2023-01-12T16:55:12.101Z,0.83
2023-01-12T17:00:15.699Z,0.90
2023-01-12T17:05:17.857Z,0.90
2023-01-12T17:10:20.083Z,0.50
2023-01-12T17:15:22.668Z,1.00
2023-01-12T17:20:24.975Z,1.10
2023-01-12T17:25:27.587Z,1.20
2023-01-12T17:30:29.616Z,0.97
2023-01-12T17:35:35.196Z,0.80
2023-01-12T17:40:40.208Z,0.60
2023-01-12T17:45:43.657Z,1.17
2023-01-12T17:50:47.291Z,1.03
2023-01-12T17:55:50.968Z,0.87
2023-01-12T18:00:54.135Z,0.80
2023-01-12T18:06:04.579Z,0.97
2023-01-12T18:11:09.612Z,0.60
2023-01-12T18:16:14.618Z,0.70
2023-01-12T18:21:21.487Z,0.90
2023-01-12T18:26:31.011Z,0.70
2023-01-12T18:31:38.050Z,0.90
2023-01-12T18:36:41.561Z,1.10
2023-01-12T18:42:02.825Z,0.60
2023-01-12T18:47:23.897Z,0.70
2023-01-12T18:52:44.989Z,0.60
2023-01-12T18:57:47.009Z,0.63
2023-01-12T19:02:49.168Z,0.80
2023-01-12T19:07:57.260Z,0.63
2023-01-12T19:13:19.613Z,0.77
2023-01-12T19:18:21.888Z,0.80
2023-01-12T19:23:42.584Z,0.50
2023-01-12T19:28:44.786Z,1.60
2023-01-12T19:33:46.851Z,1.37
2023-01-12T19:38:51.305Z,1.20
2023-01-12T19:43:53.684Z,0.67
2023-01-12T19:48:55.935Z,0.90
2023-01-12T19:53:57.941Z,0.83
2023-01-12T19:59:00.112Z,0.80
2023-01-12T20:04:02.647Z,0.80
2023-01-12T20:09:04.833Z,0.70
2023-01-12T20:14:07.306Z,0.67
2023-01-12T20:19:09.372Z,0.67
2023-01-12T20:24:11.622Z,0.60
2023-01-12T20:29:14.069Z,0.90
2023-01-12T20:34:16.254Z,0.90
2023-01-12T20:39:18.321Z,0.87
2023-01-12T20:44:20.817Z,0.63
2023-01-12T20:49:23.630Z,0.77
2023-01-12T20:54:26.007Z,0.70
2023-01-12T20:59:28.405Z,0.73
2023-01-12T21:04:31.334Z,0.70
2023-01-12T21:09:33.415Z,0.63
2023-01-12T21:14:36.123Z,0.70
2023-01-12T21:19:38.313Z,0.63
2023-01-12T21:24:40.395Z,0.70
2023-01-12T21:29:42.631Z,0.60
2023-01-12T21:34:44.841Z,0.80
2023-01-12T21:39:46.840Z,0.73
2023-01-12T21:44:49.132Z,0.90
2023-01-12T21:49:51.370Z,0.90
2023-01-12T21:54:53.733Z,0.77
2023-01-12T21:59:55.972Z,0.97
2023-01-12T22:04:58.017Z,0.70
2023-01-12T22:10:19.088Z,0.70
2023-01-12T22:15:23.179Z,0.70
2023-01-12T22:20:27.911Z,0.73
2023-01-12T22:25:30.006Z,0.70
2023-01-12T22:30:32.040Z,0.80
2023-01-12T22:35:34.232Z,0.63
2023-01-12T22:40:36.409Z,1.00
2023-01-12T22:45:38.963Z,0.70
2023-01-12T22:50:41.151Z,1.00
2023-01-12T22:55:43.264Z,0.73
2023-01-12T23:00:45.715Z,0.73
2023-01-12T23:05:56.086Z,0.70
2023-01-12T23:11:18.670Z,0.60
2023-01-12T23:16:21.200Z,0.93
2023-01-12T23:21:28.875Z,0.83
2023-01-12T23:26:32.921Z,0.50
2023-01-12T23:31:35.172Z,0.43
2023-01-12T23:36:37.649Z,0.70
2023-01-12T23:41:40.023Z,0.47
2023-01-12T23:46:43.198Z,0.80
2023-01-12T23:51:45.204Z,0.70
2023-01-12T23:56:54.787Z,0.63
